KFLD

Details ICAO KFLD (FLD)
Name Fond Du Lac Co
Region United States
Timezone America/Chicago (UTC-6.0)
Plans Departing 7
Arriving 14
Stats Elevation 808 ft / 246 m (AMSL)
Location 43.771234° -88.489155°
Runways 2
Magnetic Variation 3.554° W
Sunrise 2017-12-18 13:24:30 UTC / 2017-12-18 07:24:30 Local
Sunset 2017-12-18 22:19:34 UTC / 2017-12-18 16:19:34 Local
Advertisement - Login to hide

Runways

ID Width Length Bearing (true) Bearing (mag) Surface Threshold Offset Overrun Length
09 75 ft / 23 m 3,593 ft / 1,095 m 91.66° 95.21° Asphalt 0 ft / 0 m 0 ft / 0 m
18 100 ft / 30 m 5,948 ft / 1,813 m 180.05° 183.60° Asphalt 0 ft / 0 m 0 ft / 0 m
27 75 ft / 23 m 3,593 ft / 1,095 m 271.67° 275.22° Asphalt 0 ft / 0 m 0 ft / 0 m
36 100 ft / 30 m 5,948 ft / 1,813 m 0.05° 3.60° Asphalt 0 ft / 0 m 0 ft / 0 m

Approach Navaids

Runway Type Ident Frequency Range Bearing (true) Bearing (mag) Slope Elevation
36 Localiser IFLD 108.30 MHz 18 nm / 33 km 358.14° 1.69° - 782 ft / 238 m (AMSL)

Map

Weather


0- 5 10 15 20 25 30 35+ Temperature / ° C

Clouds and Precipitation
Forecast for 2017-12-19 00:00 UTC. Updated an hour ago

Ground ~20,000 ft ~40,000 ft Winds

METAR

KFLD 182153Z AUTO 20008KT 9SM CLR 02/M02 A2977 RMK AO2 SLP090 T00171022

TAF

Not found

Frequencies

Recorded 134.00 MHz ASOS
Unicom 122.80 MHz CTAF/UNICOM
Warning: Do not use this data for real-world aviation or navigation. No guarantee of current accuracy is given.